sensor_id;sensor_type;location;lat;lon;timestamp;temperature;humidity
15328;DHT22;7764;51.430;6.840;2023-07-24T00:03:48;19.00;99.90
15328;DHT22;7764;51.430;6.840;2023-07-24T00:16:07;19.00;99.90
15328;DHT22;7764;51.430;6.840;2023-07-24T00:18:34;19.00;99.90
15328;DHT22;7764;51.430;6.840;2023-07-24T00:21:00;18.80;99.90
15328;DHT22;7764;51.430;6.840;2023-07-24T00:23:28;18.80;99.90
15328;DHT22;7764;51.430;6.840;2023-07-24T00:25:55;18.90;99.90
15328;DHT22;7764;51.430;6.840;2023-07-24T00:28:22;18.90;99.90
15328;DHT22;7764;51.430;6.840;2023-07-24T00:30:49;18.90;99.90
15328;DHT22;7764;51.430;6.840;2023-07-24T00:33:16;18.80;99.90
15328;DHT22;7764;51.430;6.840;2023-07-24T00:35:42;18.80;99.90
15328;DHT22;7764;51.430;6.840;2023-07-24T00:38:09;18.80;99.90
15328;DHT22;7764;51.430;6.840;2023-07-24T00:40:37;18.80;99.90
15328;DHT22;7764;51.430;6.840;2023-07-24T00:43:04;18.80;99.90
15328;DHT22;7764;51.430;6.840;2023-07-24T00:45:31;18.80;99.90
15328;DHT22;7764;51.430;6.840;2023-07-24T00:47:59;18.70;99.90
15328;DHT22;7764;51.430;6.840;2023-07-24T00:50:27;18.70;99.90
15328;DHT22;7764;51.430;6.840;2023-07-24T00:52:55;18.80;99.90
15328;DHT22;7764;51.430;6.840;2023-07-24T00:55:22;18.70;99.90
15328;DHT22;7764;51.430;6.840;2023-07-24T00:57:51;18.70;99.90
15328;DHT22;7764;51.430;6.840;2023-07-24T01:00:18;18.60;99.90
15328;DHT22;7764;51.430;6.840;2023-07-24T01:02:45;18.60;99.90
15328;DHT22;7764;51.430;6.840;2023-07-24T01:05:13;18.60;99.90
15328;DHT22;7764;51.430;6.840;2023-07-24T01:07:40;18.60;99.90
15328;DHT22;7764;51.430;6.840;2023-07-24T01:10:08;18.60;99.90
15328;DHT22;7764;51.430;6.840;2023-07-24T01:12:36;18.60;99.90
15328;DHT22;7764;51.430;6.840;2023-07-24T01:15:10;18.60;99.90
15328;DHT22;7764;51.430;6.840;2023-07-24T01:17:44;18.50;99.90
15328;DHT22;7764;51.430;6.840;2023-07-24T01:20:16;18.50;99.90
15328;DHT22;7764;51.430;6.840;2023-07-24T01:22:53;18.50;99.90
15328;DHT22;7764;51.430;6.840;2023-07-24T01:25:28;18.50;99.90
15328;DHT22;7764;51.430;6.840;2023-07-24T01:27:59;18.50;99.90
15328;DHT22;7764;51.430;6.840;2023-07-24T01:30:26;18.50;99.90
15328;DHT22;7764;51.430;6.840;2023-07-24T01:32:52;18.50;99.90
15328;DHT22;7764;51.430;6.840;2023-07-24T01:35:19;18.50;99.90
15328;DHT22;7764;51.430;6.840;2023-07-24T01:37:47;18.50;99.90
15328;DHT22;7764;51.430;6.840;2023-07-24T01:40:15;18.50;99.90
15328;DHT22;7764;51.430;6.840;2023-07-24T01:42:42;18.50;99.90
15328;DHT22;7764;51.430;6.840;2023-07-24T01:45:11;18.50;99.90
15328;DHT22;7764;51.430;6.840;2023-07-24T01:47:38;18.50;99.90
15328;DHT22;7764;51.430;6.840;2023-07-24T01:50:06;18.50;99.90
15328;DHT22;7764;51.430;6.840;2023-07-24T01:52:33;18.50;99.90
15328;DHT22;7764;51.430;6.840;2023-07-24T01:55:00;18.50;99.90
15328;DHT22;7764;51.430;6.840;2023-07-24T01:57:26;18.50;99.90
15328;DHT22;7764;51.430;6.840;2023-07-24T01:59:53;18.50;99.90
15328;DHT22;7764;51.430;6.840;2023-07-24T02:02:21;18.50;99.90
15328;DHT22;7764;51.430;6.840;2023-07-24T02:04:48;18.50;99.90
15328;DHT22;7764;51.430;6.840;2023-07-24T02:07:15;18.50;99.90
15328;DHT22;7764;51.430;6.840;2023-07-24T02:09:42;18.50;99.90
15328;DHT22;7764;51.430;6.840;2023-07-24T02:12:09;18.50;99.90
15328;DHT22;7764;51.430;6.840;2023-07-24T02:14:36;18.50;99.90
15328;DHT22;7764;51.430;6.840;2023-07-24T02:17:03;18.50;99.90
15328;DHT22;7764;51.430;6.840;2023-07-24T02:19:31;18.60;99.90
15328;DHT22;7764;51.430;6.840;2023-07-24T02:21:58;18.60;99.90
15328;DHT22;7764;51.430;6.840;2023-07-24T02:24:24;18.70;99.90
15328;DHT22;7764;51.430;6.840;2023-07-24T02:26:51;18.70;99.90
15328;DHT22;7764;51.430;6.840;2023-07-24T02:29:18;18.70;99.90
15328;DHT22;7764;51.430;6.840;2023-07-24T02:31:45;18.70;99.90
15328;DHT22;7764;51.430;6.840;2023-07-24T02:34:12;18.70;99.90
15328;DHT22;7764;51.430;6.840;2023-07-24T02:36:40;18.70;99.90
15328;DHT22;7764;51.430;6.840;2023-07-24T02:39:07;18.70;99.90
15328;DHT22;7764;51.430;6.840;2023-07-24T02:41:34;18.70;99.90
15328;DHT22;7764;51.430;6.840;2023-07-24T02:44:02;18.70;99.90
15328;DHT22;7764;51.430;6.840;2023-07-24T02:46:29;18.80;99.90
15328;DHT22;7764;51.430;6.840;2023-07-24T02:48:56;18.80;99.90
15328;DHT22;7764;51.430;6.840;2023-07-24T02:51:23;18.80;99.90
15328;DHT22;7764;51.430;6.840;2023-07-24T02:53:53;18.80;99.90
15328;DHT22;7764;51.430;6.840;2023-07-24T02:56:20;18.90;99.90
15328;DHT22;7764;51.430;6.840;2023-07-24T02:58:48;18.80;99.90
15328;DHT22;7764;51.430;6.840;2023-07-24T03:01:15;18.90;99.90
15328;DHT22;7764;51.430;6.840;2023-07-24T03:03:42;18.80;99.90
15328;DHT22;7764;51.430;6.840;2023-07-24T03:06:09;18.90;99.90
15328;DHT22;7764;51.430;6.840;2023-07-24T03:08:36;18.90;99.90
15328;DHT22;7764;51.430;6.840;2023-07-24T03:11:06;18.90;99.90
15328;DHT22;7764;51.430;6.840;2023-07-24T03:13:32;18.80;99.90
15328;DHT22;7764;51.430;6.840;2023-07-24T03:15:59;18.80;99.90
15328;DHT22;7764;51.430;6.840;2023-07-24T03:18:26;18.70;99.90
15328;DHT22;7764;51.430;6.840;2023-07-24T03:20:53;18.70;99.90
15328;DHT22;7764;51.430;6.840;2023-07-24T03:23:20;18.70;99.90
15328;DHT22;7764;51.430;6.840;2023-07-24T03:25:47;18.80;99.90
15328;DHT22;7764;51.430;6.840;2023-07-24T03:28:15;18.80;99.90
15328;DHT22;7764;51.430;6.840;2023-07-24T03:30:42;18.70;99.90
15328;DHT22;7764;51.430;6.840;2023-07-24T03:33:09;18.70;99.90
15328;DHT22;7764;51.430;6.840;2023-07-24T03:35:37;18.70;99.90
15328;DHT22;7764;51.430;6.840;2023-07-24T03:38:04;18.70;99.90
15328;DHT22;7764;51.430;6.840;2023-07-24T03:40:31;18.70;99.90
15328;DHT22;7764;51.430;6.840;2023-07-24T03:42:58;18.70;99.90
15328;DHT22;7764;51.430;6.840;2023-07-24T03:45:26;18.70;99.90
15328;DHT22;7764;51.430;6.840;2023-07-24T03:47:53;18.70;99.90
15328;DHT22;7764;51.430;6.840;2023-07-24T03:50:19;18.70;99.90
15328;DHT22;7764;51.430;6.840;2023-07-24T03:52:46;18.70;99.90
15328;DHT22;7764;51.430;6.840;2023-07-24T03:55:13;18.70;99.90
15328;DHT22;7764;51.430;6.840;2023-07-24T03:57:40;18.70;99.90
15328;DHT22;7764;51.430;6.840;2023-07-24T04:00:08;18.70;99.90
15328;DHT22;7764;51.430;6.840;2023-07-24T04:39:27;18.90;99.90
15328;DHT22;7764;51.430;6.840;2023-07-24T04:41:54;18.90;99.90
15328;DHT22;7764;51.430;6.840;2023-07-24T04:44:21;18.90;99.90
15328;DHT22;7764;51.430;6.840;2023-07-24T04:46:47;18.90;99.90
15328;DHT22;7764;51.430;6.840;2023-07-24T04:49:14;18.90;99.90
15328;DHT22;7764;51.430;6.840;2023-07-24T04:51:41;18.90;99.90
15328;DHT22;7764;51.430;6.840;2023-07-24T04:54:09;18.90;99.90
15328;DHT22;7764;51.430;6.840;2023-07-24T04:56:36;18.90;99.90
15328;DHT22;7764;51.430;6.840;2023-07-24T04:59:03;18.90;99.90
15328;DHT22;7764;51.430;6.840;2023-07-24T05:01:30;18.90;99.90
15328;DHT22;7764;51.430;6.840;2023-07-24T05:03:56;18.90;99.90
15328;DHT22;7764;51.430;6.840;2023-07-24T05:06:23;19.30;99.90
15328;DHT22;7764;51.430;6.840;2023-07-24T05:08:51;19.10;99.90
15328;DHT22;7764;51.430;6.840;2023-07-24T05:11:20;19.00;99.90
15328;DHT22;7764;51.430;6.840;2023-07-24T05:13:46;19.00;99.90
15328;DHT22;7764;51.430;6.840;2023-07-24T05:16:13;19.00;99.90
15328;DHT22;7764;51.430;6.840;2023-07-24T05:18:40;19.00;99.90
15328;DHT22;7764;51.430;6.840;2023-07-24T05:21:07;19.00;99.90
15328;DHT22;7764;51.430;6.840;2023-07-24T05:23:34;19.00;99.90
15328;DHT22;7764;51.430;6.840;2023-07-24T05:26:02;18.90;99.90
15328;DHT22;7764;51.430;6.840;2023-07-24T05:28:32;19.10;99.90
15328;DHT22;7764;51.430;6.840;2023-07-24T05:31:00;18.50;99.90
15328;DHT22;7764;51.430;6.840;2023-07-24T05:33:27;19.10;99.90
15328;DHT22;7764;51.430;6.840;2023-07-24T05:35:58;19.00;99.90
15328;DHT22;7764;51.430;6.840;2023-07-24T05:38:25;19.10;99.90
15328;DHT22;7764;51.430;6.840;2023-07-24T05:40:54;19.00;99.90
15328;DHT22;7764;51.430;6.840;2023-07-24T05:43:21;19.00;99.90
15328;DHT22;7764;51.430;6.840;2023-07-24T05:45:50;19.10;99.90
15328;DHT22;7764;51.430;6.840;2023-07-24T05:48:16;19.10;99.90
15328;DHT22;7764;51.430;6.840;2023-07-24T05:50:43;19.10;99.90
15328;DHT22;7764;51.430;6.840;2023-07-24T05:53:10;19.20;99.90
15328;DHT22;7764;51.430;6.840;2023-07-24T05:55:37;19.10;99.90
15328;DHT22;7764;51.430;6.840;2023-07-24T06:03:03;19.60;99.90
15328;DHT22;7764;51.430;6.840;2023-07-24T06:05:30;19.70;99.90
15328;DHT22;7764;51.430;6.840;2023-07-24T06:07:57;19.70;99.90
15328;DHT22;7764;51.430;6.840;2023-07-24T06:10:24;19.70;99.90
15328;DHT22;7764;51.430;6.840;2023-07-24T06:12:50;19.60;99.90
15328;DHT22;7764;51.430;6.840;2023-07-24T06:15:17;19.70;99.90
15328;DHT22;7764;51.430;6.840;2023-07-24T06:17:44;19.60;99.90
15328;DHT22;7764;51.430;6.840;2023-07-24T06:20:12;19.50;99.90
15328;DHT22;7764;51.430;6.840;2023-07-24T06:22:39;19.60;99.90
15328;DHT22;7764;51.430;6.840;2023-07-24T06:25:07;19.60;99.90
15328;DHT22;7764;51.430;6.840;2023-07-24T06:27:33;19.60;99.90
15328;DHT22;7764;51.430;6.840;2023-07-24T06:30:00;19.70;99.90
15328;DHT22;7764;51.430;6.840;2023-07-24T06:32:28;19.70;99.90
15328;DHT22;7764;51.430;6.840;2023-07-24T06:34:54;19.70;99.90
15328;DHT22;7764;51.430;6.840;2023-07-24T06:37:23;19.70;99.90
15328;DHT22;7764;51.430;6.840;2023-07-24T06:39:49;19.70;99.90
15328;DHT22;7764;51.430;6.840;2023-07-24T06:42:16;19.80;99.90
15328;DHT22;7764;51.430;6.840;2023-07-24T06:44:43;19.70;99.90
15328;DHT22;7764;51.430;6.840;2023-07-24T07:04:24;20.40;99.90
15328;DHT22;7764;51.430;6.840;2023-07-24T07:06:50;20.40;99.90
15328;DHT22;7764;51.430;6.840;2023-07-24T07:09:17;20.40;99.90
15328;DHT22;7764;51.430;6.840;2023-07-24T07:11:45;20.30;99.90
15328;DHT22;7764;51.430;6.840;2023-07-24T07:14:12;20.30;99.90
15328;DHT22;7764;51.430;6.840;2023-07-24T07:16:39;20.40;99.90
15328;DHT22;7764;51.430;6.840;2023-07-24T07:19:06;20.30;99.90
15328;DHT22;7764;51.430;6.840;2023-07-24T07:21:34;20.10;99.90
15328;DHT22;7764;51.430;6.840;2023-07-24T07:24:01;20.10;99.90
15328;DHT22;7764;51.430;6.840;2023-07-24T07:26:28;20.10;99.90
15328;DHT22;7764;51.430;6.840;2023-07-24T07:28:57;20.00;99.90
15328;DHT22;7764;51.430;6.840;2023-07-24T07:31:24;20.00;99.90
15328;DHT22;7764;51.430;6.840;2023-07-24T07:33:50;20.00;99.90
15328;DHT22;7764;51.430;6.840;2023-07-24T07:36:17;20.00;99.90
15328;DHT22;7764;51.430;6.840;2023-07-24T07:38:44;20.10;99.90
15328;DHT22;7764;51.430;6.840;2023-07-24T07:41:11;20.20;99.90
15328;DHT22;7764;51.430;6.840;2023-07-24T07:43:38;20.30;99.90
15328;DHT22;7764;51.430;6.840;2023-07-24T07:46:06;20.30;99.90
15328;DHT22;7764;51.430;6.840;2023-07-24T07:48:33;20.30;99.90
15328;DHT22;7764;51.430;6.840;2023-07-24T07:50:59;20.20;99.90
15328;DHT22;7764;51.430;6.840;2023-07-24T07:53:26;20.10;99.90
15328;DHT22;7764;51.430;6.840;2023-07-24T07:55:56;19.90;99.90
15328;DHT22;7764;51.430;6.840;2023-07-24T07:58:23;20.00;99.90
15328;DHT22;7764;51.430;6.840;2023-07-24T08:00:50;20.00;99.90
15328;DHT22;7764;51.430;6.840;2023-07-24T08:23:02;21.40;99.90
15328;DHT22;7764;51.430;6.840;2023-07-24T08:25:29;21.60;99.90
15328;DHT22;7764;51.430;6.840;2023-07-24T08:27:56;21.90;99.90
15328;DHT22;7764;51.430;6.840;2023-07-24T08:30:23;21.90;99.90
15328;DHT22;7764;51.430;6.840;2023-07-24T08:32:50;21.90;99.90
15328;DHT22;7764;51.430;6.840;2023-07-24T08:35:17;21.80;99.90
15328;DHT22;7764;51.430;6.840;2023-07-24T08:37:45;21.80;99.90
15328;DHT22;7764;51.430;6.840;2023-07-24T08:40:12;21.50;99.90
15328;DHT22;7764;51.430;6.840;2023-07-24T08:42:39;21.50;99.90
15328;DHT22;7764;51.430;6.840;2023-07-24T08:45:11;21.40;99.90
15328;DHT22;7764;51.430;6.840;2023-07-24T08:47:42;21.40;99.90
15328;DHT22;7764;51.430;6.840;2023-07-24T08:50:10;21.70;99.90
15328;DHT22;7764;51.430;6.840;2023-07-24T08:52:37;21.90;99.90
15328;DHT22;7764;51.430;6.840;2023-07-24T08:55:07;22.10;99.90
15328;DHT22;7764;51.430;6.840;2023-07-24T08:57:34;22.20;99.90
15328;DHT22;7764;51.430;6.840;2023-07-24T09:00:01;22.40;99.90
15328;DHT22;7764;51.430;6.840;2023-07-24T09:02:31;22.60;99.90
15328;DHT22;7764;51.430;6.840;2023-07-24T09:04:57;22.70;99.90
15328;DHT22;7764;51.430;6.840;2023-07-24T09:07:24;22.90;99.90
15328;DHT22;7764;51.430;6.840;2023-07-24T09:09:51;22.70;99.90
15328;DHT22;7764;51.430;6.840;2023-07-24T09:12:21;22.70;99.90
15328;DHT22;7764;51.430;6.840;2023-07-24T09:14:48;22.50;99.90
15328;DHT22;7764;51.430;6.840;2023-07-24T09:17:15;22.40;99.90
15328;DHT22;7764;51.430;6.840;2023-07-24T09:19:42;22.40;99.90
15328;DHT22;7764;51.430;6.840;2023-07-24T09:22:11;22.20;99.90
15328;DHT22;7764;51.430;6.840;2023-07-24T09:24:49;22.10;99.90
15328;DHT22;7764;51.430;6.840;2023-07-24T09:27:16;22.10;99.90
15328;DHT22;7764;51.430;6.840;2023-07-24T09:29:44;21.90;99.90
15328;DHT22;7764;51.430;6.840;2023-07-24T09:32:19;21.80;99.90
15328;DHT22;7764;51.430;6.840;2023-07-24T09:34:46;21.60;99.90
15328;DHT22;7764;51.430;6.840;2023-07-24T09:37:25;21.60;99.90
15328;DHT22;7764;51.430;6.840;2023-07-24T09:39:52;21.60;99.90
15328;DHT22;7764;51.430;6.840;2023-07-24T09:42:28;21.50;99.90
15328;DHT22;7764;51.430;6.840;2023-07-24T09:44:57;21.70;99.90
15328;DHT22;7764;51.430;6.840;2023-07-24T09:47:24;22.00;99.90
15328;DHT22;7764;51.430;6.840;2023-07-24T09:49:51;21.90;99.90
15328;DHT22;7764;51.430;6.840;2023-07-24T09:52:19;22.10;99.90
15328;DHT22;7764;51.430;6.840;2023-07-24T09:54:55;22.30;99.90
15328;DHT22;7764;51.430;6.840;2023-07-24T09:57:24;22.10;99.90
15328;DHT22;7764;51.430;6.840;2023-07-24T09:59:52;22.00;99.90
15328;DHT22;7764;51.430;6.840;2023-07-24T10:02:21;22.10;99.90
15328;DHT22;7764;51.430;6.840;2023-07-24T10:04:49;22.10;99.90
15328;DHT22;7764;51.430;6.840;2023-07-24T10:07:16;22.00;99.90
15328;DHT22;7764;51.430;6.840;2023-07-24T10:09:47;22.00;99.90
15328;DHT22;7764;51.430;6.840;2023-07-24T10:12:15;22.30;99.90
15328;DHT22;7764;51.430;6.840;2023-07-24T10:14:43;21.90;99.90
15328;DHT22;7764;51.430;6.840;2023-07-24T10:17:10;22.30;99.90
15328;DHT22;7764;51.430;6.840;2023-07-24T10:19:41;22.40;99.90
15328;DHT22;7764;51.430;6.840;2023-07-24T10:22:09;22.40;99.90
15328;DHT22;7764;51.430;6.840;2023-07-24T10:24:36;23.00;99.90
15328;DHT22;7764;51.430;6.840;2023-07-24T10:27:03;22.90;99.90
15328;DHT22;7764;51.430;6.840;2023-07-24T10:29:34;23.00;99.90
15328;DHT22;7764;51.430;6.840;2023-07-24T10:32:01;23.10;99.90
15328;DHT22;7764;51.430;6.840;2023-07-24T10:34:36;23.00;99.90
15328;DHT22;7764;51.430;6.840;2023-07-24T10:37:07;23.00;99.90
15328;DHT22;7764;51.430;6.840;2023-07-24T10:39:38;22.70;99.90
15328;DHT22;7764;51.430;6.840;2023-07-24T10:42:07;22.80;99.90
15328;DHT22;7764;51.430;6.840;2023-07-24T10:44:34;22.50;99.90
15328;DHT22;7764;51.430;6.840;2023-07-24T10:47:01;22.40;99.90
15328;DHT22;7764;51.430;6.840;2023-07-24T10:49:29;22.10;99.90
15328;DHT22;7764;51.430;6.840;2023-07-24T10:51:56;22.10;99.90
15328;DHT22;7764;51.430;6.840;2023-07-24T10:54:24;21.90;99.90
15328;DHT22;7764;51.430;6.840;2023-07-24T10:56:57;22.20;99.90
15328;DHT22;7764;51.430;6.840;2023-07-24T10:59:35;22.20;99.90
15328;DHT22;7764;51.430;6.840;2023-07-24T11:02:04;22.10;99.90
15328;DHT22;7764;51.430;6.840;2023-07-24T11:04:31;22.10;99.90
15328;DHT22;7764;51.430;6.840;2023-07-24T11:06:59;22.10;99.90
15328;DHT22;7764;51.430;6.840;2023-07-24T11:09:36;21.90;99.90
15328;DHT22;7764;51.430;6.840;2023-07-24T11:12:12;21.80;99.90
15328;DHT22;7764;51.430;6.840;2023-07-24T11:14:49;21.60;99.90
15328;DHT22;7764;51.430;6.840;2023-07-24T11:17:16;21.20;99.90
15328;DHT22;7764;51.430;6.840;2023-07-24T11:22:10;21.10;99.90
15328;DHT22;7764;51.430;6.840;2023-07-24T11:24:46;21.00;99.90
15328;DHT22;7764;51.430;6.840;2023-07-24T11:27:14;20.80;99.90
15328;DHT22;7764;51.430;6.840;2023-07-24T11:29:41;20.60;99.90
15328;DHT22;7764;51.430;6.840;2023-07-24T11:32:08;20.50;99.90
15328;DHT22;7764;51.430;6.840;2023-07-24T11:34:35;20.40;99.90
15328;DHT22;7764;51.430;6.840;2023-07-24T11:37:03;20.40;99.90
15328;DHT22;7764;51.430;6.840;2023-07-24T11:39:30;20.30;99.90
15328;DHT22;7764;51.430;6.840;2023-07-24T11:41:59;20.20;99.90
15328;DHT22;7764;51.430;6.840;2023-07-24T11:44:27;20.00;99.90
15328;DHT22;7764;51.430;6.840;2023-07-24T11:47:00;19.90;99.90
15328;DHT22;7764;51.430;6.840;2023-07-24T11:49:28;20.00;99.90
15328;DHT22;7764;51.430;6.840;2023-07-24T11:52:00;20.00;99.90
15328;DHT22;7764;51.430;6.840;2023-07-24T11:54:27;20.00;99.90
15328;DHT22;7764;51.430;6.840;2023-07-24T11:56:53;19.90;99.90
15328;DHT22;7764;51.430;6.840;2023-07-24T11:59:22;19.90;99.90
15328;DHT22;7764;51.430;6.840;2023-07-24T12:04:16;19.70;99.90
15328;DHT22;7764;51.430;6.840;2023-07-24T12:06:43;19.80;99.90
15328;DHT22;7764;51.430;6.840;2023-07-24T12:09:11;20.10;99.90
15328;DHT22;7764;51.430;6.840;2023-07-24T12:11:41;19.10;99.90
15328;DHT22;7764;51.430;6.840;2023-07-24T12:14:08;20.00;99.90
15328;DHT22;7764;51.430;6.840;2023-07-24T12:16:38;21.00;99.90
15328;DHT22;7764;51.430;6.840;2023-07-24T12:19:05;20.30;99.90
15328;DHT22;7764;51.430;6.840;2023-07-24T12:21:32;20.60;99.90
15328;DHT22;7764;51.430;6.840;2023-07-24T12:23:58;20.70;99.90
15328;DHT22;7764;51.430;6.840;2023-07-24T12:26:25;22.00;99.90
15328;DHT22;7764;51.430;6.840;2023-07-24T12:28:53;20.80;99.90
15328;DHT22;7764;51.430;6.840;2023-07-24T12:31:20;20.60;99.90
15328;DHT22;7764;51.430;6.840;2023-07-24T12:33:48;20.30;99.90
15328;DHT22;7764;51.430;6.840;2023-07-24T12:36:15;20.40;99.90
15328;DHT22;7764;51.430;6.840;2023-07-24T12:38:42;20.50;99.90
15328;DHT22;7764;51.430;6.840;2023-07-24T12:41:09;20.40;99.90
15328;DHT22;7764;51.430;6.840;2023-07-24T12:43:35;20.50;99.90
15328;DHT22;7764;51.430;6.840;2023-07-24T12:46:02;20.50;99.90
15328;DHT22;7764;51.430;6.840;2023-07-24T12:48:29;20.50;99.90
15328;DHT22;7764;51.430;6.840;2023-07-24T12:50:58;20.40;99.90
15328;DHT22;7764;51.430;6.840;2023-07-24T12:53:26;20.50;99.90
15328;DHT22;7764;51.430;6.840;2023-07-24T12:55:53;20.60;99.90
15328;DHT22;7764;51.430;6.840;2023-07-24T12:58:20;21.00;99.90
15328;DHT22;7764;51.430;6.840;2023-07-24T13:00:47;20.90;99.90
15328;DHT22;7764;51.430;6.840;2023-07-24T13:03:13;21.00;99.90
15328;DHT22;7764;51.430;6.840;2023-07-24T13:05:40;21.10;99.90
15328;DHT22;7764;51.430;6.840;2023-07-24T13:08:08;21.20;99.90
15328;DHT22;7764;51.430;6.840;2023-07-24T13:10:35;21.10;99.90
15328;DHT22;7764;51.430;6.840;2023-07-24T13:13:02;21.10;99.90
15328;DHT22;7764;51.430;6.840;2023-07-24T13:15:29;21.10;99.90
15328;DHT22;7764;51.430;6.840;2023-07-24T13:17:57;21.10;99.90
15328;DHT22;7764;51.430;6.840;2023-07-24T13:20:24;21.30;99.90
15328;DHT22;7764;51.430;6.840;2023-07-24T13:22:51;21.40;99.90
15328;DHT22;7764;51.430;6.840;2023-07-24T13:25:19;21.50;99.90
15328;DHT22;7764;51.430;6.840;2023-07-24T13:27:46;21.30;99.90
15328;DHT22;7764;51.430;6.840;2023-07-24T13:30:13;21.50;99.90
15328;DHT22;7764;51.430;6.840;2023-07-24T13:32:40;21.80;99.90
15328;DHT22;7764;51.430;6.840;2023-07-24T13:35:08;21.80;99.90
15328;DHT22;7764;51.430;6.840;2023-07-24T13:37:35;21.80;99.90
15328;DHT22;7764;51.430;6.840;2023-07-24T13:40:01;22.10;99.90
15328;DHT22;7764;51.430;6.840;2023-07-24T13:42:30;22.20;99.90
15328;DHT22;7764;51.430;6.840;2023-07-24T13:44:56;22.10;99.90
15328;DHT22;7764;51.430;6.840;2023-07-24T13:47:23;22.10;99.90
15328;DHT22;7764;51.430;6.840;2023-07-24T13:49:50;22.10;99.90
15328;DHT22;7764;51.430;6.840;2023-07-24T13:52:17;22.20;99.90
15328;DHT22;7764;51.430;6.840;2023-07-24T13:54:44;22.20;99.90
15328;DHT22;7764;51.430;6.840;2023-07-24T13:57:12;22.20;99.90
15328;DHT22;7764;51.430;6.840;2023-07-24T13:59:40;22.20;99.90
15328;DHT22;7764;51.430;6.840;2023-07-24T14:02:07;22.00;99.90
15328;DHT22;7764;51.430;6.840;2023-07-24T14:04:34;22.10;99.90
15328;DHT22;7764;51.430;6.840;2023-07-24T14:07:01;22.40;99.90
15328;DHT22;7764;51.430;6.840;2023-07-24T14:09:27;22.40;99.90
15328;DHT22;7764;51.430;6.840;2023-07-24T14:11:56;22.40;99.90
15328;DHT22;7764;51.430;6.840;2023-07-24T14:14:23;22.50;99.90
15328;DHT22;7764;51.430;6.840;2023-07-24T14:16:51;22.50;99.90
15328;DHT22;7764;51.430;6.840;2023-07-24T14:19:18;22.50;99.90
15328;DHT22;7764;51.430;6.840;2023-07-24T14:21:45;22.60;99.90
15328;DHT22;7764;51.430;6.840;2023-07-24T14:24:12;22.60;99.90
15328;DHT22;7764;51.430;6.840;2023-07-24T14:26:39;22.80;99.90
15328;DHT22;7764;51.430;6.840;2023-07-24T14:29:06;22.70;99.90
15328;DHT22;7764;51.430;6.840;2023-07-24T14:31:33;22.70;99.90
15328;DHT22;7764;51.430;6.840;2023-07-24T14:34:01;22.70;99.90
15328;DHT22;7764;51.430;6.840;2023-07-24T14:36:28;22.70;99.90
15328;DHT22;7764;51.430;6.840;2023-07-24T14:38:59;22.60;99.90
15328;DHT22;7764;51.430;6.840;2023-07-24T14:41:26;22.30;99.90
15328;DHT22;7764;51.430;6.840;2023-07-24T14:43:52;22.30;99.90
15328;DHT22;7764;51.430;6.840;2023-07-24T14:46:19;22.20;99.90
15328;DHT22;7764;51.430;6.840;2023-07-24T14:48:46;22.20;99.90
15328;DHT22;7764;51.430;6.840;2023-07-24T14:51:14;22.40;99.90
15328;DHT22;7764;51.430;6.840;2023-07-24T14:53:41;22.50;99.90
15328;DHT22;7764;51.430;6.840;2023-07-24T14:56:08;22.60;99.90
15328;DHT22;7764;51.430;6.840;2023-07-24T14:58:35;22.50;99.90
15328;DHT22;7764;51.430;6.840;2023-07-24T15:01:02;22.50;99.90
15328;DHT22;7764;51.430;6.840;2023-07-24T15:03:29;22.60;99.90
15328;DHT22;7764;51.430;6.840;2023-07-24T15:05:55;22.60;99.90
15328;DHT22;7764;51.430;6.840;2023-07-24T15:08:27;22.70;99.90
15328;DHT22;7764;51.430;6.840;2023-07-24T15:10:54;22.70;99.90
15328;DHT22;7764;51.430;6.840;2023-07-24T15:13:21;22.60;99.90
15328;DHT22;7764;51.430;6.840;2023-07-24T15:15:47;22.70;99.90
15328;DHT22;7764;51.430;6.840;2023-07-24T15:18:14;22.50;99.90
15328;DHT22;7764;51.430;6.840;2023-07-24T15:20:41;22.50;99.90
15328;DHT22;7764;51.430;6.840;2023-07-24T15:23:08;22.60;99.90
15328;DHT22;7764;51.430;6.840;2023-07-24T15:25:36;22.30;99.90
15328;DHT22;7764;51.430;6.840;2023-07-24T15:28:04;22.40;99.90
15328;DHT22;7764;51.430;6.840;2023-07-24T15:30:31;22.30;99.90
15328;DHT22;7764;51.430;6.840;2023-07-24T15:32:58;22.30;99.90
15328;DHT22;7764;51.430;6.840;2023-07-24T15:35:25;22.50;99.90
15328;DHT22;7764;51.430;6.840;2023-07-24T15:37:51;22.50;99.90
15328;DHT22;7764;51.430;6.840;2023-07-24T15:40:18;22.40;99.90
15328;DHT22;7764;51.430;6.840;2023-07-24T15:42:46;22.20;99.90
15328;DHT22;7764;51.430;6.840;2023-07-24T15:45:13;22.10;99.90
15328;DHT22;7764;51.430;6.840;2023-07-24T15:47:40;21.90;99.90
15328;DHT22;7764;51.430;6.840;2023-07-24T15:50:07;21.90;99.90
15328;DHT22;7764;51.430;6.840;2023-07-24T15:52:34;21.70;99.90
15328;DHT22;7764;51.430;6.840;2023-07-24T15:55:01;21.70;99.90
15328;DHT22;7764;51.430;6.840;2023-07-24T15:57:28;21.70;99.90
15328;DHT22;7764;51.430;6.840;2023-07-24T15:59:56;21.50;99.90
15328;DHT22;7764;51.430;6.840;2023-07-24T16:02:23;21.50;99.90
15328;DHT22;7764;51.430;6.840;2023-07-24T16:04:50;21.60;99.90
15328;DHT22;7764;51.430;6.840;2023-07-24T16:07:17;21.30;99.90
15328;DHT22;7764;51.430;6.840;2023-07-24T16:09:45;21.20;99.90
15328;DHT22;7764;51.430;6.840;2023-07-24T16:12:12;21.10;99.90
15328;DHT22;7764;51.430;6.840;2023-07-24T16:14:39;21.10;99.90
15328;DHT22;7764;51.430;6.840;2023-07-24T16:17:07;21.00;99.90
15328;DHT22;7764;51.430;6.840;2023-07-24T16:19:34;20.90;99.90
15328;DHT22;7764;51.430;6.840;2023-07-24T16:22:01;20.90;99.90
15328;DHT22;7764;51.430;6.840;2023-07-24T16:24:28;20.90;99.90
15328;DHT22;7764;51.430;6.840;2023-07-24T16:26:54;20.80;99.90
15328;DHT22;7764;51.430;6.840;2023-07-24T16:29:21;20.80;99.90
15328;DHT22;7764;51.430;6.840;2023-07-24T16:31:48;20.70;99.90
15328;DHT22;7764;51.430;6.840;2023-07-24T16:34:16;20.70;99.90
15328;DHT22;7764;51.430;6.840;2023-07-24T16:36:43;20.70;99.90
15328;DHT22;7764;51.430;6.840;2023-07-24T16:39:10;20.70;99.90
15328;DHT22;7764;51.430;6.840;2023-07-24T16:41:37;20.60;99.90
15328;DHT22;7764;51.430;6.840;2023-07-24T16:44:04;20.50;99.90
15328;DHT22;7764;51.430;6.840;2023-07-24T16:46:33;20.20;99.90
15328;DHT22;7764;51.430;6.840;2023-07-24T16:49:00;20.00;99.90
15328;DHT22;7764;51.430;6.840;2023-07-24T16:51:28;19.70;99.90
15328;DHT22;7764;51.430;6.840;2023-07-24T16:53:55;19.70;99.90
15328;DHT22;7764;51.430;6.840;2023-07-24T16:56:22;19.80;99.90
15328;DHT22;7764;51.430;6.840;2023-07-24T16:58:48;19.60;99.90
15328;DHT22;7764;51.430;6.840;2023-07-24T17:01:15;19.60;99.90
15328;DHT22;7764;51.430;6.840;2023-07-24T17:03:42;19.60;99.90
15328;DHT22;7764;51.430;6.840;2023-07-24T17:06:09;19.60;99.90
15328;DHT22;7764;51.430;6.840;2023-07-24T17:08:37;19.60;99.90
15328;DHT22;7764;51.430;6.840;2023-07-24T17:11:04;19.50;99.90
15328;DHT22;7764;51.430;6.840;2023-07-24T17:13:31;19.50;99.90
15328;DHT22;7764;51.430;6.840;2023-07-24T17:15:59;19.50;99.90
15328;DHT22;7764;51.430;6.840;2023-07-24T17:18:26;19.50;99.90
15328;DHT22;7764;51.430;6.840;2023-07-24T17:20:53;19.60;99.90
15328;DHT22;7764;51.430;6.840;2023-07-24T17:23:20;19.50;99.90